Time;durP1;ratioP1;P1;durP2;ratioP2;P2;SDS_P1;SDS_P2;PMS_P1;PMS_P2;Temp;Humidity;BMP_temperature;BMP_pressure;BME280_temperature;BME280_humidity;BME280_pressure;Samples;Min_cycle;Max_cycle;Signal;HPM_P1;HPM_P2
2023/01/09 00:01:32;;;;;;;15.13;8.48;;;11.90;99.90;;;;;;5100536;28;20478;-73
2023/01/09 00:04:00;;;;;;;16.63;10.77;;;11.90;99.90;;;;;;5096947;28;20039;-73
2023/01/09 00:06:28;;;;;;;16.45;8.77;;;11.90;99.90;;;;;;5098992;28;20048;-73
2023/01/09 00:08:56;;;;;;;12.27;7.70;;;11.90;99.90;;;;;;5090971;28;20063;-73
2023/01/09 00:11:24;;;;;;;13.50;8.05;;;11.80;99.90;;;;;;5094153;28;20091;-73
2023/01/09 00:13:52;;;;;;;12.70;7.53;;;11.80;99.90;;;;;;5080310;28;20068;-73
2023/01/09 00:16:19;;;;;;;14.93;8.70;;;11.90;99.90;;;;;;5096832;28;20043;-73
2023/01/09 00:18:47;;;;;;;12.05;7.78;;;11.80;99.90;;;;;;5084734;28;20558;-73
2023/01/09 00:21:14;;;;;;;10.35;7.50;;;11.80;99.90;;;;;;5081864;28;20098;-73
2023/01/09 00:23:42;;;;;;;11.60;6.40;;;11.80;99.90;;;;;;5062453;28;20048;-74
2023/01/09 00:26:16;;;;;;;10.38;6.43;;;11.80;99.90;;;;;;5081319;28;20049;-74
2023/01/09 00:28:45;;;;;;;10.38;5.85;;;11.80;99.90;;;;;;5100041;28;20044;-73
2023/01/09 00:31:12;;;;;;;8.30;5.05;;;11.80;99.90;;;;;;5071794;28;20044;-73
2023/01/09 00:34:03;;;;;;;9.98;5.82;;;11.90;99.90;;;;;;5090569;28;20047;-73
2023/01/09 00:36:31;;;;;;;12.52;6.53;;;11.80;99.90;;;;;;5100800;28;20036;-72
2023/01/09 00:38:58;;;;;;;9.85;5.53;;;11.80;99.90;;;;;;5093535;28;20083;-73
2023/01/09 00:41:34;;;;;;;10.23;7.43;;;11.80;99.90;;;;;;5090968;28;20158;-73
2023/01/09 00:44:13;;;;;;;11.15;6.47;;;11.70;99.90;;;;;;5084137;28;20055;-73
2023/01/09 00:46:44;;;;;;;16.25;7.85;;;11.70;99.90;;;;;;5081970;28;20065;-73
2023/01/09 00:49:13;;;;;;;11.10;6.88;;;11.60;99.90;;;;;;5089776;28;20043;-73
2023/01/09 00:51:41;;;;;;;12.52;7.45;;;11.60;99.90;;;;;;5089938;28;20048;-73
2023/01/09 00:54:12;;;;;;;16.05;8.50;;;11.50;99.90;;;;;;5096012;28;20047;-74
2023/01/09 00:56:40;;;;;;;12.75;6.82;;;11.50;99.90;;;;;;5076658;28;20138;-73
2023/01/09 00:59:07;;;;;;;13.60;6.40;;;11.50;99.90;;;;;;5056993;28;20170;-73
2023/01/09 01:01:35;;;;;;;14.05;7.78;;;11.40;99.90;;;;;;5087038;28;20055;-73
2023/01/09 01:07:37;;;;;;;14.73;8.13;;;11.40;99.90;;;;;;5087910;28;20055;-74
2023/01/09 01:09:36;;;;;;;11.02;6.50;;;11.30;99.90;;;;;;5088958;28;20098;-73
2023/01/09 01:12:05;;;;;;;10.55;6.63;;;11.30;99.90;;;;;;5088558;28;20093;-73
2023/01/09 01:14:35;;;;;;;13.77;5.63;;;11.30;99.90;;;;;;5088494;28;20121;-72
2023/01/09 01:17:03;;;;;;;11.52;6.28;;;11.30;99.90;;;;;;5088561;28;20490;-73
2023/01/09 01:19:31;;;;;;;11.90;6.85;;;11.20;99.90;;;;;;5086607;28;20098;-73
2023/01/09 01:22:00;;;;;;;10.55;4.85;;;11.20;99.90;;;;;;5085673;28;20436;-73
2023/01/09 01:24:27;;;;;;;8.70;4.70;;;11.20;99.90;;;;;;5086365;28;20405;-74
2023/01/09 01:26:55;;;;;;;12.20;5.50;;;11.20;99.90;;;;;;5087097;28;20048;-73
2023/01/09 01:29:23;;;;;;;5.40;4.50;;;11.10;99.90;;;;;;5087569;28;20149;-74
2023/01/09 01:31:51;;;;;;;9.40;5.03;;;11.10;99.90;;;;;;5087331;28;20044;-73
2023/01/09 01:34:18;;;;;;;14.35;6.25;;;11.10;99.90;;;;;;5087267;28;20063;-74
2023/01/09 01:36:46;;;;;;;10.15;3.90;;;11.10;99.90;;;;;;5070440;28;20067;-73
2023/01/09 01:39:14;;;;;;;9.00;5.30;;;11.10;99.90;;;;;;5068434;28;20375;-73
2023/01/09 01:41:42;;;;;;;8.63;4.78;;;11.10;99.90;;;;;;5067058;28;20051;-73
2023/01/09 01:44:47;;;;;;;8.05;4.75;;;11.10;99.90;;;;;;5087036;28;20059;-75
2023/01/09 01:47:18;;;;;;;8.73;4.53;;;11.10;99.90;;;;;;5070068;28;20046;-73
2023/01/09 01:49:46;;;;;;;7.95;3.95;;;11.10;99.90;;;;;;5088542;28;20123;-74
2023/01/09 01:52:14;;;;;;;8.20;3.97;;;11.10;99.90;;;;;;5086846;28;20044;-73
2023/01/09 01:54:42;;;;;;;7.63;3.72;;;11.10;99.90;;;;;;5087793;28;20040;-73
2023/01/09 01:57:10;;;;;;;5.45;3.30;;;11.00;99.90;;;;;;5088277;28;20056;-73
2023/01/09 01:59:49;;;;;;;7.35;4.28;;;11.00;99.90;;;;;;5087045;28;20043;-73
2023/01/09 02:02:26;;;;;;;10.60;3.67;;;11.00;99.90;;;;;;5086393;28;20032;-73
2023/01/09 02:04:56;;;;;;;7.22;4.38;;;10.90;99.90;;;;;;5085991;28;20078;-73
2023/01/09 02:07:24;;;;;;;9.38;4.57;;;10.90;99.90;;;;;;5087079;28;20047;-73
2023/01/09 02:09:53;;;;;;;10.25;4.68;;;10.80;99.90;;;;;;5086777;28;20047;-73
2023/01/09 02:12:23;;;;;;;11.30;4.18;;;10.80;99.90;;;;;;5087820;28;20043;-73
2023/01/09 02:15:05;;;;;;;10.63;4.10;;;10.80;99.90;;;;;;5070206;28;20097;-72
2023/01/09 02:17:39;;;;;;;7.45;3.63;;;10.80;99.90;;;;;;5074209;28;20509;-74
2023/01/09 02:20:18;;;;;;;6.30;3.95;;;10.80;99.90;;;;;;5091676;28;20056;-73
2023/01/09 02:22:51;;;;;;;8.10;3.88;;;10.70;99.90;;;;;;5088709;28;20429;-73
2023/01/09 02:25:31;;;;;;;6.95;3.90;;;10.60;99.90;;;;;;5071822;28;20045;-73
2023/01/09 02:28:21;;;;;;;8.13;4.43;;;10.60;99.90;;;;;;5079017;28;20114;-73
2023/01/09 02:31:02;;;;;;;8.88;3.88;;;10.60;99.90;;;;;;5074127;28;20136;-73
2023/01/09 02:33:48;;;;;;;6.43;3.70;;;10.50;99.90;;;;;;5057104;28;20063;-73
2023/01/09 02:36:38;;;;;;;10.38;5.20;;;10.50;99.90;;;;;;5091301;28;20060;-74
2023/01/09 02:39:20;;;;;;;7.30;4.32;;;10.40;99.90;;;;;;5073576;28;20040;-74
2023/01/09 02:42:04;;;;;;;5.93;3.42;;;10.40;99.90;;;;;;5089887;28;20044;-74
2023/01/09 02:44:35;;;;;;;10.05;3.38;;;10.40;99.90;;;;;;5091111;28;20097;-74
2023/01/09 02:47:03;;;;;;;6.90;4.15;;;10.40;99.90;;;;;;5090991;28;20044;-74
2023/01/09 02:49:36;;;;;;;7.28;3.70;;;10.40;99.90;;;;;;5091085;28;20047;-73
2023/01/09 02:52:32;;;;;;;6.38;3.53;;;10.40;99.90;;;;;;5078934;28;20074;-74
2023/01/09 02:55:08;;;;;;;5.80;4.38;;;10.40;99.90;;;;;;5091626;28;20058;-73
2023/01/09 02:57:46;;;;;;;5.70;3.33;;;10.40;99.90;;;;;;5089524;28;20398;-74
2023/01/09 03:00:19;;;;;;;6.25;3.35;;;10.40;99.90;;;;;;5089569;28;20051;-73
2023/01/09 03:02:49;;;;;;;5.30;3.95;;;10.40;99.90;;;;;;5089654;28;20519;-73
2023/01/09 03:05:32;;;;;;;5.90;3.40;;;10.40;99.90;;;;;;5091138;28;20464;-74
2023/01/09 03:08:23;;;;;;;8.60;2.95;;;10.40;99.90;;;;;;5090751;28;20139;-74
2023/01/09 03:10:59;;;;;;;5.35;3.83;;;10.40;99.90;;;;;;5072640;28;20052;-74
2023/01/09 03:13:32;;;;;;;7.80;4.03;;;10.30;99.90;;;;;;5091035;28;20121;-74
2023/01/09 03:16:05;;;;;;;5.35;3.53;;;10.30;99.90;;;;;;5089777;28;20483;-74
2023/01/09 03:18:35;;;;;;;6.60;3.75;;;10.20;99.90;;;;;;5090708;28;20052;-74
2023/01/09 03:21:05;;;;;;;11.07;4.45;;;10.20;99.90;;;;;;5089587;28;20056;-73
2023/01/09 03:23:57;;;;;;;6.70;3.63;;;10.30;99.90;;;;;;5091036;28;20523;-74
2023/01/09 03:26:27;;;;;;;8.00;4.20;;;10.30;99.90;;;;;;5089201;28;20521;-73
2023/01/09 03:28:55;;;;;;;12.65;4.22;;;10.30;99.90;;;;;;5089935;28;20363;-74
2023/01/09 03:31:22;;;;;;;9.80;4.40;;;10.30;99.90;;;;;;5089729;28;20378;-74
2023/01/09 03:33:50;;;;;;;6.47;4.43;;;10.40;99.90;;;;;;5089335;28;20054;-73
2023/01/09 03:36:19;;;;;;;7.68;3.88;;;10.40;99.90;;;;;;5090082;28;20048;-73
2023/01/09 03:38:47;;;;;;;6.05;3.90;;;10.40;99.90;;;;;;5089164;28;20047;-74
2023/01/09 03:41:14;;;;;;;6.38;3.85;;;10.40;99.90;;;;;;5088923;28;20153;-73
2023/01/09 03:43:42;;;;;;;5.78;4.25;;;10.40;99.90;;;;;;5088893;28;20070;-73
2023/01/09 03:46:10;;;;;;;5.82;3.92;;;10.40;99.90;;;;;;5090283;28;20158;-75
2023/01/09 03:48:37;;;;;;;10.25;5.13;;;10.50;99.90;;;;;;5089867;28;20044;-74
2023/01/09 03:51:05;;;;;;;6.40;3.97;;;10.50;99.90;;;;;;5090143;28;20064;-73
2023/01/09 03:53:32;;;;;;;5.65;3.75;;;10.50;99.90;;;;;;5088548;28;20036;-74
2023/01/09 03:56:00;;;;;;;5.40;3.58;;;10.40;99.90;;;;;;5088866;28;20443;-74
2023/01/09 03:58:27;;;;;;;6.45;4.45;;;10.40;99.90;;;;;;5070902;28;20043;-74
2023/01/09 04:01:01;;;;;;;5.47;3.03;;;10.40;99.90;;;;;;5088053;28;20036;-74
2023/01/09 04:03:28;;;;;;;7.13;3.72;;;10.30;99.90;;;;;;5087709;28;20051;-73
2023/01/09 04:05:56;;;;;;;7.93;4.32;;;10.30;99.90;;;;;;5088303;28;20486;-73
2023/01/09 04:08:23;;;;;;;6.15;4.32;;;10.30;99.90;;;;;;5089171;28;20134;-74
2023/01/09 04:10:51;;;;;;;5.30;3.65;;;10.30;99.90;;;;;;5088577;28;20052;-73
2023/01/09 04:13:19;;;;;;;8.07;3.30;;;10.30;99.90;;;;;;5088410;28;20097;-73
2023/01/09 04:15:46;;;;;;;6.55;4.25;;;10.30;99.90;;;;;;5082079;28;20044;-74
2023/01/09 04:18:14;;;;;;;7.03;4.35;;;10.30;99.90;;;;;;5078254;28;20064;-73
2023/01/09 04:20:45;;;;;;;8.20;4.13;;;10.40;99.90;;;;;;5071660;28;20036;-73
2023/01/09 04:23:13;;;;;;;8.00;4.53;;;10.30;99.90;;;;;;5087699;28;20134;-74
2023/01/09 04:25:40;;;;;;;9.75;4.63;;;10.30;99.90;;;;;;5089621;28;20127;-73
2023/01/09 04:28:08;;;;;;;8.60;4.32;;;10.30;99.90;;;;;;5088197;28;20048;-74
2023/01/09 04:30:36;;;;;;;6.40;4.88;;;10.30;99.90;;;;;;5087115;28;20361;-74
2023/01/09 04:33:03;;;;;;;7.10;4.10;;;10.30;99.90;;;;;;5088055;28;20405;-74
2023/01/09 04:35:31;;;;;;;7.20;4.07;;;10.30;99.90;;;;;;5087868;28;20055;-74
2023/01/09 04:37:59;;;;;;;7.15;4.32;;;10.30;99.90;;;;;;5087784;28;20047;-73
2023/01/09 04:40:27;;;;;;;15.18;4.72;;;10.30;99.90;;;;;;5086795;28;20086;-73
2023/01/09 04:42:54;;;;;;;7.35;3.53;;;10.20;99.90;;;;;;5082908;28;20043;-74
2023/01/09 04:45:22;;;;;;;6.72;3.95;;;10.20;99.90;;;;;;5087832;28;20044;-73
2023/01/09 04:47:50;;;;;;;6.68;4.05;;;10.20;99.90;;;;;;5087800;28;20055;-73
2023/01/09 04:50:17;;;;;;;6.07;4.10;;;10.20;99.90;;;;;;5070609;28;20141;-74
2023/01/09 04:52:45;;;;;;;10.57;4.75;;;10.20;99.90;;;;;;5088606;28;20044;-73
2023/01/09 04:55:12;;;;;;;8.73;3.78;;;10.20;99.90;;;;;;5087090;28;20062;-74
2023/01/09 04:57:39;;;;;;;6.05;3.70;;;10.20;99.90;;;;;;5088127;28;20159;-73
2023/01/09 05:00:08;;;;;;;6.93;3.53;;;10.30;99.90;;;;;;5087087;28;20093;-73
2023/01/09 05:02:36;;;;;;;10.23;4.47;;;10.30;99.90;;;;;;5069674;28;20056;-73
2023/01/09 05:05:06;;;;;;;5.82;4.00;;;10.30;99.90;;;;;;5086937;28;20075;-73
2023/01/09 05:07:36;;;;;;;6.85;3.75;;;10.40;99.90;;;;;;5089069;28;20036;-73
2023/01/09 05:10:04;;;;;;;9.23;5.32;;;10.30;99.90;;;;;;5087740;28;20055;-74
2023/01/09 05:12:33;;;;;;;18.63;4.22;;;10.30;99.90;;;;;;5087293;28;20146;-73
2023/01/09 05:15:01;;;;;;;5.47;4.15;;;10.30;99.90;;;;;;5086916;28;20049;-74
2023/01/09 05:17:29;;;;;;;7.93;4.20;;;10.30;99.90;;;;;;5088726;28;20047;-74
2023/01/09 05:19:57;;;;;;;6.50;3.83;;;10.30;99.90;;;;;;5070708;28;20142;-74
2023/01/09 05:22:24;;;;;;;7.00;4.13;;;10.30;99.90;;;;;;5070301;28;20048;-73
2023/01/09 05:24:51;;;;;;;9.48;4.20;;;10.20;99.90;;;;;;5089038;28;20062;-74
2023/01/09 05:27:19;;;;;;;10.73;5.43;;;10.20;99.90;;;;;;5088648;28;20056;-73
2023/01/09 05:29:46;;;;;;;11.48;4.97;;;10.20;99.90;;;;;;5086790;28;20070;-74
2023/01/09 05:32:14;;;;;;;5.65;3.95;;;10.20;99.90;;;;;;5086659;28;20108;-73
2023/01/09 05:34:41;;;;;;;9.07;4.40;;;10.20;99.90;;;;;;5086849;28;20052;-73
2023/01/09 05:37:09;;;;;;;9.98;4.40;;;10.10;99.90;;;;;;5087342;28;20044;-73
2023/01/09 05:39:36;;;;;;;8.63;4.82;;;10.10;99.90;;;;;;5087242;28;20402;-74
2023/01/09 05:42:03;;;;;;;7.30;4.20;;;10.10;99.90;;;;;;5088514;28;20051;-74
2023/01/09 05:44:31;;;;;;;8.30;4.32;;;10.10;99.90;;;;;;5087954;28;20079;-74
2023/01/09 05:46:59;;;;;;;8.80;5.07;;;10.20;99.90;;;;;;5088621;28;20052;-73
2023/01/09 05:49:28;;;;;;;18.27;5.15;;;10.30;99.90;;;;;;5089004;28;20198;-73
2023/01/09 05:51:56;;;;;;;13.43;5.00;;;10.30;99.90;;;;;;5092028;28;20506;-74
2023/01/09 05:54:23;;;;;;;11.07;6.22;;;10.40;99.90;;;;;;5096861;28;20036;-74
2023/01/09 05:56:51;;;;;;;7.93;5.13;;;10.50;99.90;;;;;;5098527;28;20064;-74
2023/01/09 05:59:19;;;;;;;12.13;5.38;;;10.60;99.90;;;;;;5075087;28;20062;-73
2023/01/09 06:01:46;;;;;;;9.60;5.57;;;10.60;99.90;;;;;;5097571;28;20107;-72
2023/01/09 06:04:14;;;;;;;15.85;7.68;;;10.80;99.90;;;;;;5094872;28;20048;-73
2023/01/09 06:06:42;;;;;;;13.20;6.28;;;10.90;99.90;;;;;;5102660;28;20036;-72
2023/01/09 06:09:10;;;;;;;7.63;4.90;;;11.00;99.90;;;;;;5090350;28;20044;-73
2023/01/09 06:11:37;;;;;;;11.45;6.20;;;11.10;99.90;;;;;;5100559;28;20051;-72
2023/01/09 06:14:05;;;;;;;7.50;4.68;;;11.20;99.90;;;;;;5089700;28;20104;-72
2023/01/09 06:16:33;;;;;;;11.73;5.30;;;11.20;99.90;;;;;;5093477;28;20127;-73
2023/01/09 06:19:00;;;;;;;10.32;6.43;;;11.30;99.90;;;;;;5095176;28;20044;-72
2023/01/09 06:21:28;;;;;;;9.57;5.28;;;11.30;99.90;;;;;;5089380;28;20052;-72
2023/01/09 06:23:56;;;;;;;10.95;5.82;;;11.40;99.90;;;;;;5095420;28;20044;-73
2023/01/09 06:26:24;;;;;;;7.15;5.03;;;11.40;99.90;;;;;;5101966;28;20127;-72
2023/01/09 06:28:54;;;;;;;10.23;6.18;;;11.60;99.90;;;;;;5082687;28;20485;-73
2023/01/09 06:31:23;;;;;;;9.30;5.28;;;11.70;99.90;;;;;;5085260;28;20573;-72
2023/01/09 06:33:51;;;;;;;9.43;5.78;;;11.80;99.90;;;;;;5086094;28;20055;-73
2023/01/09 06:36:20;;;;;;;7.45;4.20;;;11.80;99.90;;;;;;5097203;28;20041;-72
2023/01/09 06:38:48;;;;;;;12.48;5.70;;;11.80;99.90;;;;;;5085933;28;20512;-73
2023/01/09 06:41:17;;;;;;;12.02;5.22;;;11.90;99.90;;;;;;5100516;28;20048;-74
2023/01/09 06:43:44;;;;;;;9.10;4.68;;;12.20;99.90;;;;;;5097634;28;20069;-74
2023/01/09 06:46:12;;;;;;;9.65;4.88;;;12.40;99.90;;;;;;5105950;28;20039;-73
2023/01/09 06:48:39;;;;;;;9.68;5.40;;;12.80;99.90;;;;;;5098585;28;20047;-73
2023/01/09 06:51:07;;;;;;;4.95;3.53;;;13.20;99.90;;;;;;5092588;28;20541;-73
2023/01/09 06:53:34;;;;;;;8.57;3.65;;;13.50;99.90;;;;;;5104211;28;20044;-73
2023/01/09 06:56:02;;;;;;;6.55;4.43;;;13.60;99.90;;;;;;5098229;28;20414;-73
2023/01/09 06:58:30;;;;;;;5.70;3.65;;;13.60;99.90;;;;;;5087653;28;20159;-75
2023/01/09 07:00:58;;;;;;;7.35;4.57;;;13.50;99.90;;;;;;5088202;28;20044;-73
2023/01/09 07:03:25;;;;;;;15.23;5.35;;;13.50;99.90;;;;;;5092963;28;20189;-73
2023/01/09 07:05:53;;;;;;;7.18;4.70;;;13.40;99.90;;;;;;5095338;28;20039;-73
2023/01/09 07:08:21;;;;;;;5.53;3.70;;;13.30;99.90;;;;;;5098282;28;20043;-74
2023/01/09 07:10:48;;;;;;;10.20;5.78;;;13.20;99.90;;;;;;5090252;28;20043;-73
2023/01/09 07:13:15;;;;;;;8.52;5.80;;;13.10;99.90;;;;;;5089516;28;20443;-73
2023/01/09 07:15:43;;;;;;;7.35;4.65;;;13.10;99.90;;;;;;5092819;28;20390;-73
2023/01/09 07:18:11;;;;;;;7.22;3.92;;;13.00;99.90;;;;;;5100383;27;20040;-76
2023/01/09 07:20:42;;;;;;;6.68;4.55;;;12.90;99.90;;;;;;5093606;28;20047;-74
2023/01/09 07:23:11;;;;;;;7.75;4.95;;;12.90;99.90;;;;;;5102634;28;20028;-73
2023/01/09 07:25:41;;;;;;;8.70;5.43;;;12.80;99.90;;;;;;5089021;28;20052;-73
2023/01/09 07:28:09;;;;;;;10.18;6.50;;;12.80;99.90;;;;;;5089785;28;20044;-74
2023/01/09 07:30:36;;;;;;;6.47;5.43;;;12.90;99.90;;;;;;5072574;28;20763;-73
2023/01/09 07:33:04;;;;;;;11.73;5.43;;;12.90;99.90;;;;;;5089009;28;20522;-72
2023/01/09 07:35:32;;;;;;;10.25;5.60;;;12.90;99.90;;;;;;5089199;28;20051;-73
2023/01/09 07:38:00;;;;;;;9.25;6.03;;;13.00;99.90;;;;;;5056023;28;20591;-73
2023/01/09 07:40:27;;;;;;;9.70;5.28;;;13.00;99.90;;;;;;5088494;28;20052;-73
2023/01/09 07:42:55;;;;;;;11.25;6.22;;;13.00;99.90;;;;;;5088504;28;20032;-73
2023/01/09 07:45:22;;;;;;;14.10;6.95;;;13.00;99.90;;;;;;5089917;28;20048;-73
2023/01/09 07:47:51;;;;;;;16.35;6.82;;;13.00;99.90;;;;;;5088492;28;20040;-73
2023/01/09 07:50:18;;;;;;;12.07;6.43;;;13.00;99.90;;;;;;5088425;28;20070;-73
2023/01/09 07:52:46;;;;;;;22.00;8.55;;;13.00;99.90;;;;;;5090254;28;20068;-73
2023/01/09 07:55:14;;;;;;;27.27;14.65;;;13.00;99.90;;;;;;5089133;28;20036;-73
2023/01/09 07:57:48;;;;;;;40.10;22.33;;;13.00;99.90;;;;;;5089606;28;20044;-74
2023/01/09 08:00:17;;;;;;;15.95;9.23;;;13.00;99.90;;;;;;5088876;28;20048;-73
2023/01/09 08:02:45;;;;;;;9.80;5.82;;;13.10;99.90;;;;;;5089240;28;20040;-73
2023/01/09 08:05:14;;;;;;;14.18;6.68;;;13.10;99.90;;;;;;5071008;28;20178;-74
2023/01/09 08:07:42;;;;;;;12.07;6.90;;;13.10;99.90;;;;;;5071212;28;20827;-73
2023/01/09 08:10:10;;;;;;;10.70;6.70;;;13.20;99.90;;;;;;5088879;28;20142;-76
2023/01/09 08:12:41;;;;;;;9.30;6.05;;;13.30;99.90;;;;;;5084313;28;20186;-73
2023/01/09 08:15:10;;;;;;;12.95;5.45;;;13.30;99.90;;;;;;5088541;28;20393;-73
2023/01/09 08:17:41;;;;;;;10.02;5.85;;;13.30;99.90;;;;;;5071604;28;20401;-73
2023/01/09 08:20:11;;;;;;;11.07;6.60;;;13.30;99.90;;;;;;5088429;28;20047;-75
2023/01/09 08:22:43;;;;;;;13.20;7.13;;;13.30;99.90;;;;;;5089023;28;20476;-72
2023/01/09 08:25:11;;;;;;;14.18;5.93;;;13.30;99.90;;;;;;5088931;28;20115;-72
2023/01/09 08:27:39;;;;;;;13.50;6.97;;;13.40;99.90;;;;;;5071722;28;20044;-72
2023/01/09 08:30:08;;;;;;;10.75;7.47;;;13.40;99.90;;;;;;5088140;28;20136;-73
2023/01/09 08:32:36;;;;;;;10.73;6.97;;;13.40;99.90;;;;;;5082352;28;20060;-72
2023/01/09 08:35:04;;;;;;;12.90;6.05;;;13.40;99.90;;;;;;5088164;28;20048;-73
2023/01/09 08:37:32;;;;;;;14.57;7.05;;;13.40;99.90;;;;;;5088019;28;20392;-73
2023/01/09 08:40:00;;;;;;;9.80;6.70;;;13.40;99.90;;;;;;5068814;28;20048;-72
2023/01/09 08:47:59;;;;;;;8.05;5.70;;;13.50;99.90;;;;;;5088713;28;20036;-72
2023/01/09 08:50:27;;;;;;;11.73;5.75;;;13.60;99.90;;;;;;5088314;28;20131;-73
2023/01/09 08:52:55;;;;;;;9.23;5.28;;;13.60;99.90;;;;;;5088826;28;20126;-73
2023/01/09 08:55:22;;;;;;;9.23;4.80;;;13.70;99.90;;;;;;5070655;28;20512;-73
2023/01/09 08:57:51;;;;;;;7.40;5.00;;;13.70;99.90;;;;;;5071014;28;20052;-73
2023/01/09 09:00:21;;;;;;;12.32;4.65;;;13.80;99.90;;;;;;5088822;28;20058;-72
2023/01/09 09:02:53;;;;;;;12.45;5.32;;;13.80;99.90;;;;;;5069968;28;20155;-74
2023/01/09 09:05:23;;;;;;;9.27;4.57;;;13.80;99.90;;;;;;5087951;28;20048;-74
2023/01/09 09:07:55;;;;;;;9.38;4.75;;;13.80;99.90;;;;;;5086994;28;20039;-72
2023/01/09 09:10:24;;;;;;;11.93;5.97;;;13.90;99.90;;;;;;5088299;28;20514;-73
2023/01/09 09:12:53;;;;;;;9.80;4.60;;;13.90;99.90;;;;;;5088578;28;20442;-74
2023/01/09 09:15:25;;;;;;;7.32;4.60;;;13.90;99.90;;;;;;5087692;28;20577;-72
2023/01/09 09:18:04;;;;;;;9.57;4.53;;;13.90;99.90;;;;;;5088964;28;20044;-73
2023/01/09 09:20:35;;;;;;;12.90;5.35;;;13.90;99.90;;;;;;5088829;28;20047;-74
2023/01/09 09:23:03;;;;;;;11.20;5.63;;;14.00;99.90;;;;;;5087239;28;20087;-74
2023/01/09 09:25:30;;;;;;;8.30;5.60;;;14.00;99.90;;;;;;5088267;28;20055;-72
2023/01/09 09:27:59;;;;;;;8.32;4.68;;;14.10;99.90;;;;;;5087819;28;20072;-73
2023/01/09 09:30:27;;;;;;;9.25;5.45;;;14.10;99.90;;;;;;5070416;28;20055;-74
2023/01/09 09:32:55;;;;;;;14.93;6.97;;;14.10;99.90;;;;;;5087345;28;20128;-72
2023/01/09 09:35:23;;;;;;;15.70;5.30;;;14.10;99.90;;;;;;5054108;28;20048;-73
2023/01/09 09:37:56;;;;;;;9.73;6.18;;;14.20;99.90;;;;;;5086909;28;20044;-74
2023/01/09 09:40:55;;;;;;;13.57;7.10;;;14.20;99.90;;;;;;5087275;28;20123;-74
2023/01/09 09:46:43;;;;;;;14.00;6.25;;;14.30;99.90;;;;;;5088421;28;20042;-74
2023/01/09 09:49:16;;;;;;;8.52;4.65;;;14.30;99.90;;;;;;5070580;28;20068;-73
2023/01/09 09:52:23;;;;;;;9.52;4.72;;;14.40;99.90;;;;;;5070210;28;20113;-74
2023/01/09 09:54:51;;;;;;;10.23;4.35;;;14.50;99.90;;;;;;5056894;28;20095;-72
2023/01/09 09:57:24;;;;;;;10.43;4.15;;;14.60;99.90;;;;;;5066871;28;20119;-73
2023/01/09 09:59:52;;;;;;;7.35;3.80;;;14.60;99.90;;;;;;5050511;28;20032;-73
2023/01/09 10:02:31;;;;;;;10.40;5.25;;;14.70;99.90;;;;;;5068464;28;20052;-74
2023/01/09 10:05:18;;;;;;;14.20;3.95;;;14.80;99.90;;;;;;5049449;28;20398;-73
2023/01/09 10:07:49;;;;;;;10.40;3.38;;;14.90;99.90;;;;;;5068292;28;20049;-74
2023/01/09 10:10:42;;;;;;;7.68;2.70;;;14.90;99.90;;;;;;5066196;28;20076;-74
2023/01/09 10:16:27;;;;;;;7.13;3.47;;;14.90;99.90;;;;;;5085035;28;20081;-73
2023/01/09 10:19:18;;;;;;;5.32;2.67;;;14.90;99.90;;;;;;5086372;28;20052;-73
2023/01/09 10:22:09;;;;;;;6.95;3.25;;;14.90;99.90;;;;;;5086895;28;20134;-73
2023/01/09 10:25:07;;;;;;;10.40;2.97;;;15.00;99.90;;;;;;5074520;28;20063;-73
2023/01/09 10:27:43;;;;;;;13.32;4.10;;;15.00;99.90;;;;;;5087006;28;20137;-74
2023/01/09 10:30:28;;;;;;;6.25;2.42;;;14.90;99.90;;;;;;5087584;28;20147;-74
2023/01/09 10:33:02;;;;;;;8.15;3.20;;;14.90;99.90;;;;;;5069818;28;20044;-73
2023/01/09 10:35:44;;;;;;;6.60;3.08;;;14.90;99.90;;;;;;5088303;28;20048;-73
2023/01/09 10:38:21;;;;;;;5.85;2.50;;;14.90;99.90;;;;;;5088299;28;20516;-75
2023/01/09 10:41:01;;;;;;;7.20;2.83;;;14.80;99.90;;;;;;5091466;28;20422;-73
2023/01/09 10:44:03;;;;;;;5.82;3.08;;;14.80;99.90;;;;;;5087826;28;20060;-73
2023/01/09 10:46:55;;;;;;;8.55;2.95;;;14.70;99.90;;;;;;5089534;28;20387;-73
2023/01/09 10:49:23;;;;;;;5.07;3.15;;;14.70;99.90;;;;;;5047383;28;20051;-74
2023/01/09 10:51:58;;;;;;;7.20;2.13;;;14.70;99.90;;;;;;5091495;28;20036;-74
2023/01/09 10:54:28;;;;;;;7.65;3.13;;;14.70;99.90;;;;;;5089525;28;20203;-74
2023/01/09 10:57:17;;;;;;;6.53;3.88;;;14.70;99.90;;;;;;5090464;28;20597;-75
2023/01/09 10:59:45;;;;;;;11.50;3.55;;;14.80;99.90;;;;;;5089722;28;20048;-72
2023/01/09 11:02:27;;;;;;;14.43;3.13;;;14.80;99.90;;;;;;5090451;28;20036;-74
2023/01/09 11:04:55;;;;;;;15.60;4.22;;;14.80;99.90;;;;;;5055695;28;20056;-73
2023/01/09 11:07:31;;;;;;;10.57;3.35;;;14.80;99.90;;;;;;5089335;28;20052;-75
2023/01/09 11:10:06;;;;;;;4.63;2.72;;;14.80;99.90;;;;;;5090053;28;20565;-74
2023/01/09 11:12:35;;;;;;;17.35;4.03;;;14.80;99.90;;;;;;5088519;28;20073;-74
2023/01/09 11:15:18;;;;;;;10.90;4.80;;;14.80;99.90;;;;;;5090921;28;20127;-75
2023/01/09 11:17:46;;;;;;;7.60;2.85;;;14.90;99.90;;;;;;5089972;28;20085;-74
2023/01/09 11:20:33;;;;;;;8.82;3.78;;;14.90;99.90;;;;;;5088897;28;20048;-73
2023/01/09 11:23:01;;;;;;;16.38;3.97;;;14.90;99.90;;;;;;5090545;28;20344;-74
2023/01/09 11:25:28;;;;;;;7.43;3.83;;;14.80;99.90;;;;;;5089855;28;20127;-73
2023/01/09 11:28:02;;;;;;;9.82;4.38;;;14.80;99.90;;;;;;5090946;28;20131;-76
2023/01/09 11:30:50;;;;;;;8.90;3.28;;;14.80;99.90;;;;;;5090412;28;20471;-73
2023/01/09 11:33:21;;;;;;;11.25;5.57;;;14.70;99.90;;;;;;5090083;28;20115;-75
2023/01/09 11:35:58;;;;;;;26.30;11.52;;;14.70;99.90;;;;;;5088852;28;20501;-74
2023/01/09 11:38:26;;;;;;;12.07;7.60;;;14.70;99.90;;;;;;5090165;28;20044;-73
2023/01/09 11:40:57;;;;;;;19.70;7.30;;;14.60;99.90;;;;;;5089914;28;20040;-72
2023/01/09 11:43:38;;;;;;;18.45;7.18;;;14.60;99.90;;;;;;5089953;28;20100;-75
2023/01/09 11:46:07;;;;;;;18.50;8.75;;;14.60;99.90;;;;;;5090407;28;20053;-78
2023/01/09 11:48:51;;;;;;;10.95;5.50;;;14.70;99.90;;;;;;5055435;28;20074;-74
2023/01/09 11:51:32;;;;;;;19.55;6.05;;;14.70;99.90;;;;;;5072181;28;20124;-76
2023/01/09 11:54:18;;;;;;;12.63;4.65;;;14.80;99.90;;;;;;5088239;28;20052;-75
2023/01/09 11:56:48;;;;;;;10.93;4.88;;;14.80;99.90;;;;;;5089402;28;20095;-74
2023/01/09 11:59:21;;;;;;;14.73;5.32;;;14.90;99.90;;;;;;5090059;28;20386;-74
2023/01/09 12:02:01;;;;;;;9.85;3.72;;;14.90;99.90;;;;;;5089914;28;20044;-73
2023/01/09 12:04:41;;;;;;;12.15;4.50;;;14.90;99.90;;;;;;5088291;28;20084;-74
2023/01/09 12:07:24;;;;;;;10.60;6.05;;;14.90;99.90;;;;;;5088591;28;20048;-74
2023/01/09 12:10:10;;;;;;;12.82;6.53;;;15.00;99.90;;;;;;5089264;28;20513;-79
2023/01/09 12:12:53;;;;;;;13.45;5.47;;;15.00;99.90;;;;;;5073605;28;20071;-73
2023/01/09 12:15:24;;;;;;;7.47;3.58;;;15.00;99.90;;;;;;5076874;28;20053;-73
2023/01/09 12:18:04;;;;;;;16.27;6.55;;;15.00;99.90;;;;;;5084175;28;20044;-76
2023/01/09 12:21:01;;;;;;;11.93;4.63;;;15.00;99.90;;;;;;5096496;28;20093;-74
2023/01/09 12:23:29;;;;;;;12.02;5.13;;;15.00;99.90;;;;;;5055649;28;20048;-75
2023/01/09 12:26:09;;;;;;;12.50;5.22;;;15.00;99.90;;;;;;5090843;28;20040;-73
2023/01/09 12:29:14;;;;;;;14.88;5.55;;;15.00;99.90;;;;;;5082388;28;20035;-73
2023/01/09 12:31:51;;;;;;;12.38;5.13;;;14.90;99.90;;;;;;5082611;28;20047;-75
2023/01/09 12:34:45;;;;;;;12.75;4.80;;;14.90;99.90;;;;;;5098866;28;20043;-73
2023/01/09 12:37:31;;;;;;;12.80;5.13;;;14.80;99.90;;;;;;5077235;28;20075;-73
2023/01/09 12:40:16;;;;;;;12.33;5.20;;;14.80;99.90;;;;;;5100966;28;20042;-74
2023/01/09 12:43:14;;;;;;;11.93;4.70;;;14.80;99.90;;;;;;5092497;28;20032;-73
2023/01/09 12:46:17;;;;;;;7.97;4.07;;;14.80;99.90;;;;;;5088096;28;20432;-73
2023/01/09 12:49:07;;;;;;;10.07;4.53;;;14.80;99.90;;;;;;5079399;28;20759;-72
2023/01/09 12:51:46;;;;;;;11.48;5.53;;;14.80;99.90;;;;;;5094015;28;20127;-72
2023/01/09 12:54:20;;;;;;;13.20;6.20;;;14.80;99.90;;;;;;5090044;28;20032;-72
2023/01/09 12:57:00;;;;;;;8.38;4.53;;;14.70;99.90;;;;;;5095776;28;20039;-75
2023/01/09 13:00:05;;;;;;;19.35;4.53;;;14.70;99.90;;;;;;5094019;28;20062;-73
2023/01/09 13:03:04;;;;;;;18.27;4.75;;;14.70;99.90;;;;;;5028526;28;20086;-73
2023/01/09 13:06:00;;;;;;;16.50;5.68;;;14.60;99.90;;;;;;5096810;28;20027;-73
2023/01/09 13:08:39;;;;;;;13.35;5.95;;;14.60;99.90;;;;;;5070331;28;20047;-72
2023/01/09 13:11:23;;;;;;;13.93;5.35;;;14.50;99.90;;;;;;5083518;28;20067;-74
2023/01/09 13:14:09;;;;;;;17.77;6.68;;;14.50;99.90;;;;;;5070881;28;20821;-74
2023/01/09 13:16:44;;;;;;;10.63;5.78;;;14.40;99.90;;;;;;5070552;28;20052;-74
2023/01/09 13:19:20;;;;;;;16.55;5.53;;;14.40;99.90;;;;;;5087399;28;20488;-74
2023/01/09 13:21:48;;;;;;;16.20;6.28;;;14.40;99.90;;;;;;5087462;28;20036;-73
2023/01/09 13:24:19;;;;;;;11.88;5.97;;;14.40;99.90;;;;;;5088189;28;20080;-75
2023/01/09 13:26:54;;;;;;;15.18;6.88;;;14.30;99.90;;;;;;5088298;28;20078;-74